createdAt,value
2022-11-16T00:01:39.668Z,10.59
2022-11-16T00:07:02.882Z,10.61
2022-11-16T00:12:24.702Z,10.57
2022-11-16T00:17:46.398Z,10.55
2022-11-16T00:23:08.092Z,10.54
2022-11-16T00:28:29.872Z,10.54
2022-11-16T00:33:52.507Z,10.60
2022-11-16T00:39:15.930Z,10.71
2022-11-16T00:44:37.623Z,10.81
2022-11-16T00:49:59.309Z,10.69
2022-11-16T00:55:21.080Z,10.65
2022-11-16T01:00:43.549Z,10.75
2022-11-16T01:06:08.187Z,10.69
2022-11-16T01:11:48.660Z,10.59
2022-11-16T01:17:10.500Z,10.51
2022-11-16T01:22:35.351Z,10.41
2022-11-16T01:27:57.053Z,10.27
2022-11-16T01:33:18.747Z,10.38
2022-11-16T01:38:42.337Z,10.30
2022-11-16T01:44:07.355Z,10.29
2022-11-16T01:49:32.637Z,10.27
2022-11-16T01:54:55.267Z,10.34
2022-11-16T02:00:17.973Z,10.34
2022-11-16T02:06:04.336Z,10.37
2022-11-16T02:11:38.137Z,10.27
2022-11-16T02:17:16.409Z,10.34
2022-11-16T02:22:56.842Z,10.30
2022-11-16T02:28:32.191Z,10.25
2022-11-16T02:33:56.898Z,10.30
2022-11-16T02:39:21.026Z,10.28
2022-11-16T02:44:47.229Z,10.17
2022-11-16T02:50:16.237Z,10.21
2022-11-16T02:55:38.177Z,10.26
2022-11-16T03:01:05.961Z,10.25
2022-11-16T03:06:31.556Z,10.18
2022-11-16T03:11:59.822Z,10.17
2022-11-16T03:17:29.175Z,10.13
2022-11-16T03:22:56.559Z,10.18
2022-11-16T03:28:24.738Z,10.34
2022-11-16T03:33:50.736Z,10.32
2022-11-16T03:39:18.777Z,10.30
2022-11-16T03:44:42.064Z,10.32
2022-11-16T03:50:04.315Z,10.36
2022-11-16T03:55:25.992Z,10.44
2022-11-16T04:00:47.830Z,10.37
2022-11-16T04:06:29.127Z,10.18
2022-11-16T04:12:09.801Z,10.17
2022-11-16T04:17:50.025Z,10.20
2022-11-16T04:23:34.866Z,10.28
2022-11-16T04:28:56.535Z,10.25
2022-11-16T04:34:41.098Z,10.24
2022-11-16T04:40:04.264Z,10.33
2022-11-16T04:45:46.385Z,10.31
2022-11-16T04:51:08.061Z,10.36
2022-11-16T04:56:29.795Z,10.39
2022-11-16T05:02:09.984Z,10.48
2022-11-16T05:07:31.790Z,10.52
2022-11-16T05:12:53.579Z,10.46
2022-11-16T05:18:15.246Z,10.47
2022-11-16T05:23:55.350Z,10.45
2022-11-16T05:29:17.025Z,10.44
2022-11-16T05:34:39.169Z,10.46
2022-11-16T05:40:00.849Z,10.47
2022-11-16T05:45:22.532Z,10.46
2022-11-16T05:50:44.238Z,10.45
2022-11-16T05:56:06.690Z,10.39
2022-11-16T06:01:28.747Z,10.42
2022-11-16T06:06:50.469Z,10.45
2022-11-16T06:12:12.289Z,10.38
2022-11-16T06:17:34.015Z,10.32
2022-11-16T06:22:55.722Z,10.36
2022-11-16T06:28:17.427Z,10.41
2022-11-16T06:33:39.149Z,10.43
2022-11-16T06:39:01.223Z,10.46
2022-11-16T06:44:22.987Z,10.46
2022-11-16T06:49:45.334Z,10.44
2022-11-16T06:55:07.424Z,10.48
2022-11-16T07:00:29.136Z,10.46
2022-11-16T07:05:50.832Z,10.52
2022-11-16T07:11:12.664Z,10.49
2022-11-16T07:16:36.205Z,10.51
2022-11-16T07:21:57.889Z,10.59
2022-11-16T07:27:19.607Z,10.60
2022-11-16T07:32:42.924Z,10.57
2022-11-16T07:38:04.715Z,10.60
2022-11-16T07:43:27.748Z,10.54
2022-11-16T07:48:49.530Z,10.63
2022-11-16T07:54:12.974Z,10.64
2022-11-16T07:59:34.812Z,10.65
2022-11-16T08:04:56.545Z,10.68
2022-11-16T08:10:18.488Z,10.62
2022-11-16T08:15:40.387Z,10.59
2022-11-16T08:21:03.123Z,10.59
2022-11-16T08:26:24.947Z,10.64
2022-11-16T08:31:46.733Z,10.66
2022-11-16T08:37:08.442Z,10.72
2022-11-16T08:42:30.305Z,10.69
2022-11-16T08:48:03.248Z,10.72
2022-11-16T08:53:25.580Z,10.71
2022-11-16T08:58:48.245Z,10.70
2022-11-16T09:04:11.536Z,10.79
2022-11-16T09:09:33.259Z,10.84
2022-11-16T09:14:55.027Z,10.86
2022-11-16T09:20:16.752Z,10.93
2022-11-16T09:25:38.494Z,10.91
2022-11-16T09:31:02.325Z,10.90
2022-11-16T09:36:25.459Z,10.94
2022-11-16T09:42:08.796Z,10.91
2022-11-16T09:47:49.750Z,10.88
2022-11-16T09:53:33.769Z,10.96
2022-11-16T09:59:09.392Z,11.11
2022-11-16T10:05:11.611Z,11.22
2022-11-16T10:10:38.979Z,11.32
2022-11-16T10:16:13.556Z,11.39
2022-11-16T10:21:51.916Z,11.35
2022-11-16T10:27:27.590Z,11.40
2022-11-16T10:33:00.297Z,11.54
2022-11-16T10:38:27.518Z,11.64
2022-11-16T10:43:49.533Z,11.70
2022-11-16T10:49:39.913Z,11.65
2022-11-16T10:55:02.684Z,11.60
2022-11-16T11:00:46.029Z,11.74
2022-11-16T11:06:11.208Z,11.81
2022-11-16T11:11:51.358Z,12.01
2022-11-16T11:17:17.699Z,12.23
2022-11-16T11:23:02.841Z,12.24
2022-11-16T11:28:33.506Z,12.17
2022-11-16T11:33:59.414Z,12.22
2022-11-16T11:39:21.242Z,12.06
2022-11-16T11:44:44.540Z,11.95
2022-11-16T11:50:12.353Z,11.93
2022-11-16T11:55:34.323Z,11.95
2022-11-16T12:01:11.278Z,11.99
2022-11-16T12:06:45.784Z,11.98
2022-11-16T12:12:15.770Z,11.98
2022-11-16T12:18:14.904Z,12.04
2022-11-16T12:23:43.751Z,12.20
2022-11-16T12:29:19.017Z,12.37
2022-11-16T12:35:04.536Z,12.51
2022-11-16T12:40:33.096Z,12.45
2022-11-16T12:46:49.054Z,12.42
2022-11-16T12:52:56.512Z,12.53
2022-11-16T12:58:45.755Z,12.55
2022-11-16T13:04:18.215Z,12.53
2022-11-16T13:09:59.012Z,12.57
2022-11-16T13:15:24.855Z,12.63
2022-11-16T13:20:55.921Z,12.67
2022-11-16T13:26:30.155Z,12.75
2022-11-16T13:31:57.252Z,12.73
2022-11-16T13:37:34.260Z,12.74
2022-11-16T13:43:11.251Z,12.75
2022-11-16T13:48:37.005Z,12.72
2022-11-16T13:59:40.588Z,12.59
2022-11-16T14:05:41.583Z,12.50
2022-11-16T14:11:04.628Z,12.48
2022-11-16T14:16:26.382Z,12.50
2022-11-16T14:22:01.673Z,12.57
2022-11-16T14:27:56.833Z,12.63
2022-11-16T14:33:30.502Z,12.55
2022-11-16T14:38:52.207Z,12.50
2022-11-16T14:44:19.822Z,12.48
2022-11-16T14:49:43.129Z,12.51
2022-11-16T14:55:07.641Z,12.59
2022-11-16T15:00:30.239Z,12.41
2022-11-16T15:05:52.068Z,12.27
2022-11-16T15:11:57.166Z,12.21
2022-11-16T15:17:22.405Z,12.12
2022-11-16T15:22:46.170Z,12.02
2022-11-16T15:28:13.978Z,11.91
2022-11-16T15:33:38.286Z,11.77
2022-11-16T15:39:02.447Z,11.65
2022-11-16T15:44:24.647Z,11.56
2022-11-16T15:49:49.516Z,11.53
2022-11-16T15:55:23.865Z,11.43
2022-11-16T16:00:48.351Z,11.29
2022-11-16T16:06:15.723Z,11.17
2022-11-16T16:11:37.448Z,11.15
2022-11-16T16:17:00.376Z,11.08
2022-11-16T16:22:31.413Z,10.88
2022-11-16T16:27:53.067Z,10.84
2022-11-16T16:33:19.866Z,10.83
2022-11-16T16:38:41.628Z,10.77
2022-11-16T16:44:10.908Z,10.69
2022-11-16T16:49:32.771Z,10.58
2022-11-16T16:54:54.416Z,10.45
2022-11-16T17:00:16.724Z,10.47
2022-11-16T17:05:38.624Z,10.38
2022-11-16T17:11:00.304Z,10.36
2022-11-16T17:16:24.755Z,10.36
2022-11-16T17:21:46.576Z,10.19
2022-11-16T17:27:08.317Z,10.16
2022-11-16T17:32:30.297Z,10.05
2022-11-16T17:37:51.960Z,10.14
2022-11-16T17:43:13.647Z,10.24
2022-11-16T17:48:36.286Z,10.24
2022-11-16T17:53:58.049Z,10.33
2022-11-16T17:59:20.635Z,10.27
2022-11-16T18:04:49.661Z,10.31
2022-11-16T18:10:17.878Z,10.48
2022-11-16T18:15:42.505Z,10.45
2022-11-16T18:21:05.884Z,10.53
2022-11-16T18:26:27.593Z,10.49
2022-11-16T18:31:49.333Z,10.50
2022-11-16T18:37:11.327Z,10.47
2022-11-16T18:42:33.069Z,10.49
2022-11-16T18:47:54.866Z,10.49
2022-11-16T18:53:16.584Z,10.39
2022-11-16T18:58:54.424Z,10.18
2022-11-16T19:04:16.141Z,10.02
2022-11-16T19:09:37.895Z,9.97
2022-11-16T19:14:59.732Z,9.61
2022-11-16T19:20:21.428Z,9.62
2022-11-16T19:25:43.192Z,9.58
2022-11-16T19:31:15.083Z,9.60
2022-11-16T19:36:37.238Z,9.56
2022-11-16T19:41:58.965Z,9.53
2022-11-16T19:47:22.992Z,9.32
2022-11-16T19:52:45.258Z,9.37
2022-11-16T19:58:06.970Z,9.29
2022-11-16T20:03:29.819Z,9.27
2022-11-16T20:08:53.803Z,9.41
2022-11-16T20:14:15.699Z,9.45
2022-11-16T20:19:37.400Z,9.34
2022-11-16T20:24:59.221Z,9.47
2022-11-16T20:30:20.948Z,9.47
2022-11-16T20:35:42.761Z,9.22
2022-11-16T20:41:08.129Z,9.18
2022-11-16T20:46:32.255Z,8.97
2022-11-16T20:51:53.976Z,9.00
2022-11-16T20:57:15.767Z,8.92
2022-11-16T21:02:37.493Z,8.90
2022-11-16T21:07:59.597Z,9.14
2022-11-16T21:13:44.550Z,9.26
2022-11-16T21:19:07.113Z,9.42
2022-11-16T21:24:29.276Z,9.33
2022-11-16T21:29:50.970Z,9.25
2022-11-16T21:35:12.725Z,9.15
2022-11-16T21:40:34.447Z,9.06
2022-11-16T21:46:05.903Z,9.11
2022-11-16T21:51:27.787Z,9.15
2022-11-16T21:56:49.465Z,9.09
2022-11-16T22:02:11.762Z,9.00
2022-11-16T22:07:33.637Z,9.02
2022-11-16T22:12:55.337Z,8.78
2022-11-16T22:18:17.157Z,8.70
2022-11-16T22:23:39.327Z,8.96
2022-11-16T22:29:01.467Z,9.16
2022-11-16T22:34:23.474Z,9.23
2022-11-16T22:39:45.144Z,9.31
2022-11-16T22:45:07.131Z,9.33
2022-11-16T22:50:28.816Z,9.22
2022-11-16T22:55:50.576Z,9.15
2022-11-16T23:01:13.365Z,9.20
2022-11-16T23:06:35.313Z,9.26
2022-11-16T23:12:15.657Z,9.23
2022-11-16T23:17:37.413Z,9.24
2022-11-16T23:23:17.839Z,9.20
2022-11-16T23:28:40.705Z,9.21
2022-11-16T23:34:05.176Z,9.26
2022-11-16T23:39:26.854Z,9.27
2022-11-16T23:44:48.586Z,9.19
2022-11-16T23:50:10.305Z,9.18
2022-11-16T23:55:33.553Z,9.23
